createdAt,value
2019-03-27T00:01:37.146Z,6.10
2019-03-27T00:04:05.712Z,6.10
2019-03-27T00:06:34.291Z,6.10
2019-03-27T00:09:02.934Z,6.10
2019-03-27T00:11:31.517Z,6.10
2019-03-27T00:14:00.158Z,6.10
2019-03-27T00:16:28.745Z,6.10
2019-03-27T00:18:57.378Z,6.20
2019-03-27T00:21:25.900Z,6.10
2019-03-27T00:23:54.461Z,6.10
2019-03-27T00:26:22.989Z,6.10
2019-03-27T00:28:51.542Z,6.00
2019-03-27T00:31:20.122Z,6.00
2019-03-27T00:33:48.689Z,6.00
2019-03-27T00:36:17.281Z,5.90
2019-03-27T00:38:45.918Z,5.90
2019-03-27T00:41:14.511Z,5.80
2019-03-27T00:43:43.086Z,5.80
2019-03-27T00:46:11.742Z,5.80
2019-03-27T00:48:40.321Z,5.80
2019-03-27T00:51:08.910Z,5.80
2019-03-27T00:53:37.474Z,5.70
2019-03-27T00:56:06.168Z,5.70
2019-03-27T00:58:34.707Z,5.70
2019-03-27T01:01:08.129Z,5.70
2019-03-27T01:03:36.839Z,5.60
2019-03-27T01:06:06.269Z,5.60
2019-03-27T01:08:34.914Z,5.70
2019-03-27T01:11:03.568Z,5.70
2019-03-27T01:13:32.208Z,5.70
2019-03-27T01:16:00.851Z,5.60
2019-03-27T01:18:29.418Z,5.60
2019-03-27T01:20:57.947Z,5.60
2019-03-27T01:23:26.516Z,5.60
2019-03-27T01:25:55.112Z,5.70
2019-03-27T01:28:23.674Z,5.60
2019-03-27T01:30:52.198Z,5.60
2019-03-27T01:33:20.770Z,5.60
2019-03-27T01:35:49.291Z,5.50
2019-03-27T01:38:17.851Z,5.50
2019-03-27T01:40:46.445Z,5.50
2019-03-27T01:43:15.096Z,5.50
2019-03-27T01:45:53.096Z,5.50
2019-03-27T01:48:13.900Z,5.40
2019-03-27T01:50:42.419Z,5.40
2019-03-27T01:53:10.987Z,5.40
2019-03-27T01:55:39.550Z,5.40
2019-03-27T01:58:08.140Z,5.30
2019-03-27T02:00:36.843Z,5.40
2019-03-27T02:03:05.438Z,5.30
2019-03-27T02:05:34.015Z,5.30
2019-03-27T02:08:02.602Z,5.20
2019-03-27T02:10:31.094Z,5.20
2019-03-27T02:12:59.602Z,5.10
2019-03-27T02:15:28.174Z,5.00
2019-03-27T02:17:56.693Z,5.00
2019-03-27T02:20:25.254Z,5.00
2019-03-27T02:22:53.769Z,5.00
2019-03-27T02:25:22.291Z,4.90
2019-03-27T02:27:50.877Z,4.80
2019-03-27T02:30:19.462Z,4.80
2019-03-27T02:32:48.055Z,4.80
2019-03-27T02:35:16.626Z,4.70
2019-03-27T02:37:45.211Z,4.70
2019-03-27T02:40:13.795Z,4.70
2019-03-27T02:42:42.387Z,4.60
2019-03-27T02:45:11.099Z,4.60
2019-03-27T02:47:39.678Z,4.60
2019-03-27T02:50:08.486Z,4.60
2019-03-27T02:52:37.089Z,4.60
2019-03-27T02:55:07.209Z,4.70
2019-03-27T02:57:36.135Z,4.70
2019-03-27T03:00:08.084Z,4.80
2019-03-27T03:02:36.677Z,4.80
2019-03-27T03:05:07.516Z,4.80
2019-03-27T03:07:36.740Z,4.80
2019-03-27T03:10:06.955Z,4.80
2019-03-27T03:12:35.649Z,4.80
2019-03-27T03:15:05.232Z,4.80
2019-03-27T03:17:33.889Z,4.80
2019-03-27T03:20:02.538Z,4.90
2019-03-27T03:22:31.128Z,4.90
2019-03-27T03:24:59.702Z,4.90
2019-03-27T03:27:28.294Z,5.00
2019-03-27T03:29:56.863Z,5.10
2019-03-27T03:32:25.514Z,5.10
2019-03-27T03:34:54.070Z,5.10
2019-03-27T03:37:22.650Z,5.10
2019-03-27T03:39:51.270Z,5.20
2019-03-27T03:42:19.984Z,5.20
2019-03-27T03:44:48.556Z,5.20
2019-03-27T03:47:17.148Z,5.30
2019-03-27T03:49:45.639Z,5.30
2019-03-27T03:52:15.071Z,5.30
2019-03-27T03:54:43.961Z,5.40
2019-03-27T03:57:13.087Z,5.30
2019-03-27T03:59:42.097Z,5.40
2019-03-27T04:02:10.949Z,5.40
2019-03-27T04:04:41.333Z,5.40
2019-03-27T04:07:09.971Z,5.50
2019-03-27T04:09:38.507Z,5.50
2019-03-27T04:12:07.087Z,5.50
2019-03-27T04:14:35.663Z,5.50
2019-03-27T04:17:17.172Z,5.60
2019-03-27T04:19:34.466Z,5.60
2019-03-27T04:22:03.056Z,5.60
2019-03-27T04:24:31.632Z,5.60
2019-03-27T04:27:00.224Z,5.60
2019-03-27T04:29:28.790Z,5.60
2019-03-27T04:31:57.302Z,5.60
2019-03-27T04:34:25.869Z,5.70
2019-03-27T04:36:54.473Z,5.70
2019-03-27T04:39:23.027Z,5.70
2019-03-27T04:41:51.711Z,5.70
2019-03-27T04:44:20.288Z,5.70
2019-03-27T04:46:48.881Z,5.70
2019-03-27T04:49:17.451Z,5.70
2019-03-27T04:51:45.978Z,5.70
2019-03-27T04:54:14.547Z,5.70
2019-03-27T04:56:43.067Z,5.70
2019-03-27T04:59:11.640Z,5.70
2019-03-27T05:01:40.255Z,5.80
2019-03-27T05:04:08.828Z,5.80
2019-03-27T05:06:37.436Z,5.80
2019-03-27T05:09:06.267Z,5.80
2019-03-27T05:11:34.842Z,5.80
2019-03-27T05:14:03.478Z,5.80
2019-03-27T05:16:32.002Z,5.80
2019-03-27T05:19:00.659Z,5.90
2019-03-27T05:21:29.245Z,5.90
2019-03-27T05:23:57.769Z,5.90
2019-03-27T05:26:26.355Z,6.00
2019-03-27T05:28:54.993Z,6.00
2019-03-27T05:31:23.510Z,6.00
2019-03-27T05:33:52.069Z,6.10
2019-03-27T05:36:20.566Z,6.00
2019-03-27T05:38:49.254Z,6.00
2019-03-27T05:41:17.847Z,6.00
2019-03-27T05:43:46.405Z,6.00
2019-03-27T05:46:14.972Z,6.00
2019-03-27T05:48:43.558Z,6.00
2019-03-27T05:51:12.121Z,6.10
2019-03-27T05:53:40.634Z,6.10
2019-03-27T05:56:09.189Z,6.10
2019-03-27T05:58:37.715Z,6.20
2019-03-27T06:01:16.154Z,6.10
2019-03-27T06:03:39.035Z,6.20
2019-03-27T06:06:07.596Z,6.10
2019-03-27T06:08:36.182Z,6.20
2019-03-27T06:11:04.763Z,6.20
2019-03-27T06:13:33.350Z,6.10
2019-03-27T06:16:01.927Z,6.20
2019-03-27T06:18:30.541Z,6.20
2019-03-27T06:20:59.080Z,6.20
2019-03-27T06:23:30.726Z,6.30
2019-03-27T06:25:59.362Z,6.30
2019-03-27T06:28:28.405Z,6.40
2019-03-27T06:30:56.973Z,6.60
2019-03-27T06:33:25.570Z,6.70
2019-03-27T06:35:54.131Z,6.70
2019-03-27T06:38:22.715Z,6.70
2019-03-27T06:40:51.285Z,6.80
2019-03-27T06:43:19.874Z,6.80
2019-03-27T06:45:48.371Z,6.90
2019-03-27T06:48:26.137Z,6.90
2019-03-27T06:50:47.177Z,7.00
2019-03-27T06:53:15.689Z,7.00
2019-03-27T06:55:44.538Z,7.10
2019-03-27T06:58:13.125Z,7.10
2019-03-27T07:00:41.694Z,7.10
2019-03-27T07:03:10.213Z,7.10
2019-03-27T07:05:38.774Z,7.20
2019-03-27T07:08:07.368Z,7.20
2019-03-27T07:10:35.925Z,7.30
2019-03-27T07:13:04.580Z,7.30
2019-03-27T07:15:35.683Z,7.30
2019-03-27T07:18:03.518Z,7.30
2019-03-27T07:20:32.095Z,7.20
2019-03-27T07:23:00.677Z,7.20
2019-03-27T07:25:29.301Z,7.20
2019-03-27T07:27:57.879Z,7.20
2019-03-27T07:30:26.569Z,7.30
2019-03-27T07:32:55.149Z,7.30
2019-03-27T07:35:23.731Z,7.30
2019-03-27T07:37:52.328Z,7.40
2019-03-27T07:40:20.893Z,7.50
2019-03-27T07:42:49.470Z,7.60
2019-03-27T07:45:18.180Z,7.60
2019-03-27T07:47:48.121Z,7.80
2019-03-27T07:50:17.421Z,7.90
2019-03-27T07:52:46.014Z,8.00
2019-03-27T07:55:19.744Z,8.00
2019-03-27T07:57:44.880Z,8.00
2019-03-27T08:00:19.319Z,8.10
2019-03-27T08:02:47.902Z,8.50
2019-03-27T08:05:16.534Z,8.90
2019-03-27T08:07:45.811Z,9.00
2019-03-27T08:10:14.509Z,9.20
2019-03-27T08:12:43.163Z,9.40
2019-03-27T08:15:12.576Z,9.60
2019-03-27T08:17:41.183Z,9.60
2019-03-27T08:20:11.297Z,9.60
2019-03-27T08:22:39.874Z,9.70
2019-03-27T08:25:09.196Z,9.70
2019-03-27T08:27:37.839Z,9.90
2019-03-27T08:30:09.765Z,10.10
2019-03-27T08:32:38.359Z,9.90
2019-03-27T08:35:07.475Z,9.70
2019-03-27T08:37:36.360Z,9.60
2019-03-27T08:40:07.476Z,9.60
2019-03-27T08:42:36.962Z,9.80
2019-03-27T08:45:08.929Z,9.80
2019-03-27T08:47:37.634Z,9.90
2019-03-27T08:50:07.934Z,9.90
2019-03-27T08:52:36.546Z,10.00
2019-03-27T08:55:08.495Z,9.80
2019-03-27T08:57:37.142Z,9.70
2019-03-27T09:00:08.557Z,9.90
2019-03-27T09:02:37.315Z,10.10
2019-03-27T09:05:08.894Z,10.50
2019-03-27T09:07:37.529Z,10.80
2019-03-27T09:10:07.366Z,10.70
2019-03-27T09:12:36.298Z,10.60
2019-03-27T09:15:07.676Z,10.80
2019-03-27T09:17:36.193Z,11.20
2019-03-27T09:20:06.230Z,11.40
2019-03-27T09:22:34.822Z,11.40
2019-03-27T09:25:04.223Z,11.50
2019-03-27T09:27:34.088Z,11.60
2019-03-27T09:30:02.834Z,11.50
2019-03-27T09:32:31.429Z,11.30
2019-03-27T09:35:00.011Z,10.90
2019-03-27T09:37:28.609Z,11.00
2019-03-27T09:39:57.174Z,11.40
2019-03-27T09:42:25.685Z,11.70
2019-03-27T09:44:54.247Z,11.80
2019-03-27T09:47:22.850Z,11.90
2019-03-27T09:49:51.412Z,11.90
2019-03-27T09:52:20.062Z,11.70
2019-03-27T09:54:48.555Z,11.60
2019-03-27T09:57:17.158Z,11.20
2019-03-27T09:59:45.722Z,11.00
2019-03-27T10:02:14.304Z,10.90
2019-03-27T10:04:42.868Z,10.60
2019-03-27T10:07:11.401Z,10.60
2019-03-27T10:09:39.889Z,10.70
2019-03-27T10:12:08.473Z,10.90
2019-03-27T10:14:37.054Z,11.10
2019-03-27T10:17:05.619Z,11.20
2019-03-27T10:19:34.211Z,11.40
2019-03-27T10:22:03.826Z,11.60
2019-03-27T10:24:32.350Z,11.60
2019-03-27T10:27:00.847Z,11.60
2019-03-27T10:29:29.366Z,11.70
2019-03-27T10:31:57.866Z,11.90
2019-03-27T10:34:26.454Z,12.00
2019-03-27T10:36:55.022Z,11.80
2019-03-27T10:39:23.623Z,11.90
2019-03-27T10:41:52.187Z,12.00
2019-03-27T10:44:20.779Z,12.00
2019-03-27T10:46:49.337Z,12.00
2019-03-27T10:49:17.850Z,12.00
2019-03-27T10:51:46.426Z,11.90
2019-03-27T10:54:15.006Z,11.80
2019-03-27T10:56:43.576Z,11.80
2019-03-27T10:59:12.168Z,11.90
2019-03-27T11:01:40.729Z,12.10
2019-03-27T11:04:09.364Z,12.00
2019-03-27T11:06:38.177Z,11.90
2019-03-27T11:09:10.133Z,12.00
2019-03-27T11:11:38.761Z,12.00
2019-03-27T11:14:07.422Z,12.10
2019-03-27T11:16:35.994Z,12.10
2019-03-27T11:19:04.649Z,12.40
2019-03-27T11:21:33.149Z,12.50
2019-03-27T11:24:01.739Z,12.70
2019-03-27T11:26:32.173Z,12.70
2019-03-27T11:29:00.719Z,12.80
2019-03-27T11:31:29.290Z,12.90
2019-03-27T11:33:57.875Z,12.70
2019-03-27T11:36:26.441Z,12.70
2019-03-27T11:38:54.949Z,12.90
2019-03-27T11:41:23.455Z,13.00
2019-03-27T11:43:55.127Z,13.20
2019-03-27T11:46:22.264Z,13.20
2019-03-27T11:48:50.855Z,12.80
2019-03-27T11:51:19.434Z,12.50
2019-03-27T11:53:48.019Z,12.20
2019-03-27T11:56:16.595Z,12.20
2019-03-27T11:58:47.217Z,12.40
2019-03-27T12:01:15.879Z,12.70
2019-03-27T12:03:44.443Z,13.00
2019-03-27T12:06:13.098Z,12.90
2019-03-27T12:08:41.759Z,13.00
2019-03-27T12:11:10.474Z,13.00
2019-03-27T12:13:38.990Z,12.90
2019-03-27T12:16:07.629Z,13.00
2019-03-27T12:18:36.214Z,12.90
2019-03-27T12:21:05.214Z,12.80
2019-03-27T12:23:33.769Z,12.90
2019-03-27T12:26:02.437Z,12.90
2019-03-27T12:28:31.024Z,12.90
2019-03-27T12:30:59.586Z,13.20
2019-03-27T12:33:28.254Z,13.20
2019-03-27T12:35:56.823Z,13.40
2019-03-27T12:38:25.412Z,13.60
2019-03-27T12:40:53.980Z,13.60
2019-03-27T12:43:22.567Z,13.40
2019-03-27T12:45:51.126Z,13.10
2019-03-27T12:48:19.747Z,13.10
2019-03-27T12:50:48.409Z,13.00
2019-03-27T12:53:16.909Z,13.00
2019-03-27T12:55:45.496Z,12.90
2019-03-27T12:58:14.142Z,12.80
2019-03-27T13:00:42.793Z,12.80
2019-03-27T13:03:11.313Z,12.80
2019-03-27T13:05:39.858Z,12.90
2019-03-27T13:08:08.490Z,12.90
2019-03-27T13:10:37.156Z,12.80
2019-03-27T13:13:05.721Z,12.70
2019-03-27T13:15:34.318Z,12.70
2019-03-27T13:18:02.873Z,12.70
2019-03-27T13:20:31.458Z,12.70
2019-03-27T13:23:00.094Z,12.60
2019-03-27T13:25:28.687Z,12.70
2019-03-27T13:27:57.245Z,12.80
2019-03-27T13:30:25.839Z,12.70
2019-03-27T13:32:54.663Z,13.00
2019-03-27T13:35:23.242Z,13.20
2019-03-27T13:37:51.821Z,13.40
2019-03-27T13:40:20.337Z,13.60
2019-03-27T13:42:51.048Z,13.60
2019-03-27T13:45:19.805Z,13.60
2019-03-27T13:47:48.370Z,13.40
2019-03-27T13:50:19.359Z,13.20
2019-03-27T13:52:47.935Z,13.10
2019-03-27T13:55:16.522Z,13.10
2019-03-27T13:57:45.171Z,12.90
2019-03-27T14:00:16.020Z,12.70
2019-03-27T14:02:44.658Z,12.70
2019-03-27T14:05:14.689Z,12.60
2019-03-27T14:07:43.402Z,12.70
2019-03-27T14:10:12.322Z,12.90
2019-03-27T14:12:40.902Z,12.90
2019-03-27T14:15:10.230Z,13.00
2019-03-27T14:17:38.805Z,13.00
2019-03-27T14:20:08.339Z,13.10
2019-03-27T14:22:36.917Z,13.20
2019-03-27T14:25:07.850Z,13.20
2019-03-27T14:27:36.582Z,13.20
2019-03-27T14:30:08.278Z,13.20
2019-03-27T14:32:36.897Z,13.30
2019-03-27T14:35:05.594Z,13.10
2019-03-27T14:37:34.082Z,13.20
2019-03-27T14:40:04.210Z,13.10
2019-03-27T14:42:32.783Z,13.00
2019-03-27T14:45:01.367Z,13.10
2019-03-27T14:47:29.862Z,13.00
2019-03-27T14:49:58.425Z,13.00
2019-03-27T14:52:27.026Z,12.90
2019-03-27T14:54:55.590Z,12.80
2019-03-27T14:57:24.175Z,12.80
2019-03-27T14:59:52.746Z,12.80
2019-03-27T15:02:21.407Z,12.80
2019-03-27T15:04:50.037Z,12.70
2019-03-27T15:07:18.698Z,12.80
2019-03-27T15:09:47.829Z,12.90
2019-03-27T15:12:16.417Z,13.00
2019-03-27T15:14:45.053Z,13.00
2019-03-27T15:17:13.644Z,13.00
2019-03-27T15:19:42.285Z,13.00
2019-03-27T15:22:21.818Z,13.10
2019-03-27T15:24:41.031Z,13.20
2019-03-27T15:27:09.615Z,13.20
2019-03-27T15:29:38.186Z,13.20
2019-03-27T15:32:06.778Z,13.00
2019-03-27T15:34:37.082Z,13.00
2019-03-27T15:37:05.680Z,13.10
2019-03-27T15:39:34.283Z,13.20
2019-03-27T15:42:03.867Z,13.20
2019-03-27T15:44:32.434Z,13.10
2019-03-27T15:47:01.053Z,13.10
2019-03-27T15:49:29.597Z,13.10
2019-03-27T15:51:58.191Z,13.00
2019-03-27T15:54:26.758Z,12.80
2019-03-27T15:56:55.362Z,12.70
2019-03-27T15:59:23.939Z,12.70
2019-03-27T16:01:52.533Z,12.70
2019-03-27T16:04:21.211Z,12.80
2019-03-27T16:06:51.090Z,12.70
2019-03-27T16:09:20.521Z,12.60
2019-03-27T16:11:49.550Z,12.50
2019-03-27T16:14:18.047Z,12.50
2019-03-27T16:17:01.321Z,12.40
2019-03-27T16:19:16.937Z,12.30
2019-03-27T16:21:45.455Z,12.30
2019-03-27T16:24:14.013Z,12.20
2019-03-27T16:26:42.745Z,12.10
2019-03-27T16:29:11.271Z,12.10
2019-03-27T16:31:39.854Z,12.00
2019-03-27T16:34:08.498Z,12.00
2019-03-27T16:36:37.090Z,11.90
2019-03-27T16:39:07.393Z,12.00
2019-03-27T16:41:35.979Z,11.90
2019-03-27T16:44:05.483Z,11.90
2019-03-27T16:46:34.083Z,11.90
2019-03-27T16:49:02.657Z,11.80
2019-03-27T16:51:31.179Z,11.80
2019-03-27T16:53:59.755Z,11.70
2019-03-27T16:56:28.250Z,11.70
2019-03-27T16:58:56.769Z,11.70
2019-03-27T17:01:25.338Z,11.70
2019-03-27T17:03:53.862Z,11.70
2019-03-27T17:06:22.407Z,11.60
2019-03-27T17:08:50.990Z,11.60
2019-03-27T17:11:19.559Z,11.50
2019-03-27T17:13:48.150Z,11.50
2019-03-27T17:16:16.707Z,11.40
2019-03-27T17:18:46.289Z,11.40
2019-03-27T17:21:14.930Z,11.30
2019-03-27T17:23:43.527Z,11.30
2019-03-27T17:26:12.085Z,11.20
2019-03-27T17:28:40.613Z,11.10
2019-03-27T17:31:09.187Z,11.10
2019-03-27T17:33:37.778Z,11.00
2019-03-27T17:36:06.426Z,11.00
2019-03-27T17:38:34.958Z,11.00
2019-03-27T17:41:03.517Z,10.90
2019-03-27T17:43:32.111Z,10.90
2019-03-27T17:46:00.677Z,10.90
2019-03-27T17:48:29.272Z,10.80
2019-03-27T17:50:57.830Z,10.80
2019-03-27T17:53:31.939Z,10.70
2019-03-27T17:55:57.658Z,10.70
2019-03-27T17:58:26.242Z,10.70
2019-03-27T18:00:55.807Z,10.70
2019-03-27T18:03:24.470Z,10.60
2019-03-27T18:05:53.113Z,10.60
2019-03-27T18:08:21.696Z,10.50
2019-03-27T18:10:50.268Z,10.50
2019-03-27T18:13:18.860Z,10.40
2019-03-27T18:15:47.426Z,10.40
2019-03-27T18:18:16.083Z,10.40
2019-03-27T18:20:44.667Z,10.40
2019-03-27T18:23:13.259Z,10.40
2019-03-27T18:25:41.838Z,10.30
2019-03-27T18:28:10.346Z,10.40
2019-03-27T18:30:38.990Z,10.40
2019-03-27T18:33:07.644Z,10.40
2019-03-27T18:35:36.211Z,10.30
2019-03-27T18:38:05.166Z,10.30
2019-03-27T18:40:33.723Z,10.30
2019-03-27T18:43:02.311Z,10.30
2019-03-27T18:45:30.885Z,10.30
2019-03-27T18:47:59.490Z,10.30
2019-03-27T18:50:28.064Z,10.30
2019-03-27T18:52:56.656Z,10.30
2019-03-27T18:55:26.683Z,10.30
2019-03-27T18:58:00.285Z,10.20
2019-03-27T19:00:26.077Z,10.30
2019-03-27T19:02:54.666Z,10.20
2019-03-27T19:05:23.223Z,10.20
2019-03-27T19:07:51.807Z,10.20
2019-03-27T19:10:20.375Z,10.10
2019-03-27T19:12:49.053Z,10.10
2019-03-27T19:15:17.635Z,10.10
2019-03-27T19:17:46.228Z,10.00
2019-03-27T19:20:14.939Z,10.00
2019-03-27T19:22:43.524Z,9.90
2019-03-27T19:25:12.326Z,9.90
2019-03-27T19:27:40.912Z,9.90
2019-03-27T19:30:10.231Z,9.90
2019-03-27T19:32:38.814Z,9.80
2019-03-27T19:35:07.738Z,9.70
2019-03-27T19:37:36.327Z,9.70
2019-03-27T19:40:06.037Z,9.70
2019-03-27T19:42:34.626Z,9.70
2019-03-27T19:45:04.039Z,9.70
2019-03-27T19:47:32.719Z,9.70
2019-03-27T19:50:01.357Z,9.70
2019-03-27T19:52:29.933Z,9.70
2019-03-27T19:55:06.318Z,9.70
2019-03-27T19:57:34.813Z,9.70
2019-03-27T20:00:05.396Z,9.70
2019-03-27T20:02:33.962Z,9.70
2019-03-27T20:05:02.716Z,9.70
2019-03-27T20:07:36.138Z,9.70
2019-03-27T20:10:01.586Z,9.70
2019-03-27T20:12:30.151Z,9.70
2019-03-27T20:15:11.048Z,9.70
2019-03-27T20:17:29.003Z,9.70
2019-03-27T20:19:57.590Z,9.70
2019-03-27T20:22:26.172Z,9.70
2019-03-27T20:24:54.754Z,9.70
2019-03-27T20:27:23.246Z,9.70
2019-03-27T20:29:51.893Z,9.70
2019-03-27T20:32:20.386Z,9.70
2019-03-27T20:34:48.976Z,9.70
2019-03-27T20:37:17.538Z,9.80
2019-03-27T20:39:46.046Z,9.80
2019-03-27T20:42:14.701Z,9.80
2019-03-27T20:44:43.205Z,9.90
2019-03-27T20:47:11.776Z,9.80
2019-03-27T20:49:40.376Z,9.80
2019-03-27T20:52:08.954Z,9.80
2019-03-27T20:54:37.467Z,9.80
2019-03-27T20:57:06.031Z,9.80
2019-03-27T20:59:34.623Z,9.90
2019-03-27T21:02:03.237Z,9.80
2019-03-27T21:04:31.888Z,9.80
2019-03-27T21:07:00.470Z,9.80
2019-03-27T21:09:29.054Z,9.80
2019-03-27T21:11:57.729Z,9.80
2019-03-27T21:14:26.373Z,9.80
2019-03-27T21:16:54.982Z,9.70
2019-03-27T21:19:23.634Z,9.70
2019-03-27T21:21:52.203Z,9.70
2019-03-27T21:24:20.794Z,9.70
2019-03-27T21:26:49.380Z,9.80
2019-03-27T21:29:17.954Z,9.70
2019-03-27T21:31:46.446Z,9.70
2019-03-27T21:34:15.045Z,9.70
2019-03-27T21:36:43.613Z,9.70
2019-03-27T21:39:12.198Z,9.70
2019-03-27T21:41:40.762Z,9.70
2019-03-27T21:44:09.348Z,9.70
2019-03-27T21:46:37.916Z,9.70
2019-03-27T21:49:06.572Z,9.70
2019-03-27T21:51:35.052Z,9.70
2019-03-27T21:54:03.654Z,9.70
2019-03-27T21:56:32.230Z,9.70
2019-03-27T21:59:02.449Z,9.70
2019-03-27T22:01:31.025Z,9.60
2019-03-27T22:03:59.606Z,9.60
2019-03-27T22:06:28.109Z,9.60
2019-03-27T22:08:56.693Z,9.60
2019-03-27T22:11:25.287Z,9.60
2019-03-27T22:13:53.883Z,9.60
2019-03-27T22:16:22.443Z,9.60
2019-03-27T22:18:51.027Z,9.60
2019-03-27T22:21:19.610Z,9.50
2019-03-27T22:23:48.194Z,9.50
2019-03-27T22:26:16.754Z,9.50
2019-03-27T22:28:45.363Z,9.50
2019-03-27T22:31:13.923Z,9.50
2019-03-27T22:33:42.527Z,9.50
2019-03-27T22:36:11.047Z,9.50
2019-03-27T22:38:39.626Z,9.40
2019-03-27T22:41:08.182Z,9.40
2019-03-27T22:43:36.762Z,9.40
2019-03-27T22:46:05.310Z,9.30
2019-03-27T22:48:33.899Z,9.30
2019-03-27T22:51:02.469Z,9.30
2019-03-27T22:53:31.054Z,9.30
2019-03-27T22:55:59.557Z,9.20
2019-03-27T22:58:28.130Z,9.20
2019-03-27T23:00:56.864Z,9.20
2019-03-27T23:03:25.436Z,9.20
2019-03-27T23:05:54.046Z,9.10
2019-03-27T23:08:22.619Z,9.10
2019-03-27T23:10:51.183Z,9.10
2019-03-27T23:13:19.878Z,9.10
2019-03-27T23:15:48.465Z,9.10
2019-03-27T23:18:17.384Z,9.10
2019-03-27T23:20:46.029Z,9.10
2019-03-27T23:23:14.527Z,9.10
2019-03-27T23:25:43.125Z,9.10
2019-03-27T23:28:11.618Z,9.10
2019-03-27T23:30:40.228Z,9.00
2019-03-27T23:33:08.841Z,9.00
2019-03-27T23:35:37.417Z,9.00
2019-03-27T23:38:05.983Z,9.00
2019-03-27T23:40:34.632Z,9.00
2019-03-27T23:43:03.289Z,9.00
2019-03-27T23:45:31.847Z,9.00
2019-03-27T23:48:00.337Z,9.00
2019-03-27T23:50:28.851Z,9.00
2019-03-27T23:52:57.482Z,9.00
2019-03-27T23:55:25.994Z,9.00
2019-03-27T23:57:54.563Z,8.90
